CheckWX is a tool to help pilots better visualize weather data.  It is not intended as a substitute for an official pre-flight weather briefing.

18:32:51 UTC

KSMP METAR
Stampede Pass Airport
Washington, USA
Current

22 mins ago

KSMP 221811Z AUTO 00000KT 1 1/2SM -SN BR SCT003 BKN008 OVC022 M04/M06 A2983 RMK AO2 P0000 T10391061 $
Observed
Feb-22 @ 18:11 UTC
Visibility
1 1/2 SM
Flight Rules
IFR
Conditions
Light Snow, Mist
Cloud Levels
  • Scattered at 300' AGL
  • Broken at 800' AGL
  • Overcast at 2,200' AGL
Temperature
-4°C / 25°F
Dewpoint
-6°C / 21°F
Humidity
86%
Altimeter
29.83" Hg
Pressure
1010.12 hPa
Current Rain
0.01"
Previous

31 mins ago

KSMP 221802Z AUTO 00000KT 1 1/4SM -SN SCT004 SCT007 OVC022 M04/M07 A2984 RMK AO2 P0000 T10391067 $
Observed
Feb-22 @ 18:02 UTC
Visibility
1 1/4 SM
Flight Rules
IFR
Conditions
Light Snow
Cloud Levels
  • Scattered at 400' AGL
  • Scattered at 700' AGL
  • Overcast at 2,200' AGL
Temperature
-4°C / 25°F
Dewpoint
-7°C / 19°F
Humidity
80%
Altimeter
29.84" Hg
Pressure
1010.52 hPa
Current Rain
0.01"
Previous

37 mins ago

KSMP 221756Z AUTO 00000KT 1 1/4SM -SN FEW004 BKN022 OVC027 M04/M07 A2984 RMK AO2 SLP138 P0000 60000 T10391067 11033 21044 56010 $
Observed
Feb-22 @ 17:56 UTC
Visibility
1 1/4 SM
Flight Rules
IFR
Conditions
Light Snow
Cloud Levels
  • Few at 400' AGL
  • Broken at 2,200' AGL
  • Overcast at 2,700' AGL
Temperature
-4°C / 25°F
Dewpoint
-7°C / 19°F
Humidity
80%
Altimeter
29.84" Hg
Pressure
1013.8 hPa
Current Rain
0.01"